Time;durP1;ratioP1;P1;durP2;ratioP2;P2;SDS_P1;SDS_P2;PMS_P1;PMS_P2;Temp;Humidity;BMP_temperature;BMP_pressure;BME280_temperature;BME280_humidity;BME280_pressure;Samples;Min_cycle;Max_cycle;Signal;HPM_P1;HPM_P2
2020/12/02 00:00:36;;;;;;;56.05;27.52;;;6.40;99.90;;;;;;5031685;28;20037;-69
2020/12/02 00:03:13;;;;;;;52.60;27.58;;;6.40;99.90;;;;;;5031245;28;20231;-69
2020/12/02 00:05:46;;;;;;;48.50;25.97;;;6.30;99.90;;;;;;5030606;28;20029;-69
2020/12/02 00:08:18;;;;;;;58.63;27.45;;;6.50;99.90;;;;;;5034946;28;20262;-68
2020/12/02 00:10:44;;;;;;;56.88;28.20;;;6.50;99.90;;;;;;5035543;28;20065;-68
2020/12/02 00:13:17;;;;;;;58.13;29.10;;;6.50;99.90;;;;;;5035262;28;20132;-69
2020/12/02 00:15:43;;;;;;;52.05;28.23;;;6.40;99.80;;;;;;5035456;28;20041;-69
2020/12/02 00:18:09;;;;;;;50.13;26.50;;;6.50;99.90;;;;;;5035251;28;20421;-69
2020/12/02 00:20:35;;;;;;;50.95;26.48;;;6.50;99.90;;;;;;5035188;28;20096;-70
2020/12/02 00:23:00;;;;;;;50.50;27.15;;;6.50;99.80;;;;;;5035631;28;20045;-69
2020/12/02 00:25:26;;;;;;;50.72;25.95;;;6.60;99.90;;;;;;5035162;28;20041;-68
2020/12/02 00:27:52;;;;;;;51.97;26.90;;;6.50;99.90;;;;;;5035084;28;20116;-70
2020/12/02 00:30:18;;;;;;;50.28;26.63;;;6.60;99.90;;;;;;5034752;28;20448;-69
2020/12/02 00:32:46;;;;;;;48.63;26.17;;;6.50;99.70;;;;;;5033465;28;20422;-69
2020/12/02 00:35:14;;;;;;;;;;;6.50;99.80;;;;;;5036874;28;20364;-69
2020/12/02 00:37:40;;;;;;;48.35;25.00;;;6.40;99.90;;;;;;5034905;28;20464;-69
2020/12/02 00:40:06;;;;;;;51.10;25.08;;;6.40;99.90;;;;;;5035058;28;20068;-69
2020/12/02 00:42:32;;;;;;;50.47;26.70;;;6.40;99.90;;;;;;5034897;28;20573;-69
2020/12/02 00:44:58;;;;;;;48.83;26.55;;;6.30;99.90;;;;;;5035028;28;20133;-69
2020/12/02 00:47:25;;;;;;;47.85;24.85;;;6.40;99.90;;;;;;5035268;28;20439;-68
2020/12/02 00:49:54;;;;;;;51.17;25.33;;;6.40;99.90;;;;;;5034653;28;20366;-69
2020/12/02 00:52:20;;;;;;;45.38;24.60;;;6.30;99.90;;;;;;5034666;28;20084;-69
2020/12/02 00:54:46;;;;;;;42.65;23.33;;;6.50;99.90;;;;;;5034433;28;20408;-69
2020/12/02 00:57:17;;;;;;;44.42;23.48;;;6.50;99.80;;;;;;5034717;28;20029;-69
2020/12/02 00:59:49;;;;;;;45.55;24.60;;;6.50;99.90;;;;;;5034692;28;20450;-69
2020/12/02 01:02:37;;;;;;;44.95;23.70;;;6.40;99.80;;;;;;5036077;28;20026;-69
2020/12/02 01:05:11;;;;;;;45.22;24.63;;;6.50;99.70;;;;;;5034734;28;20056;-69
2020/12/02 01:07:40;;;;;;;47.58;23.40;;;6.50;99.80;;;;;;5034119;28;20103;-68
2020/12/02 01:10:07;;;;;;;46.42;22.90;;;6.40;99.70;;;;;;5033560;28;20100;-69
2020/12/02 01:12:33;;;;;;;47.50;24.02;;;6.40;99.70;;;;;;5034542;28;20159;-69
2020/12/02 01:14:58;;;;;;;45.88;23.55;;;6.40;99.80;;;;;;5034138;28;20033;-70
2020/12/02 01:17:24;;;;;;;47.65;24.13;;;6.50;99.90;;;;;;5034710;28;20026;-70
2020/12/02 01:19:49;;;;;;;44.30;23.77;;;6.60;99.80;;;;;;5033128;28;20034;-69
2020/12/02 01:22:26;;;;;;;46.08;24.77;;;6.50;99.80;;;;;;5032625;28;20045;-69
2020/12/02 01:25:15;;;;;;;48.22;23.05;;;6.50;99.80;;;;;;5033904;28;20112;-69
2020/12/02 01:27:57;;;;;;;51.65;23.67;;;6.50;99.70;;;;;;5034106;28;20034;-68
2020/12/02 01:30:24;;;;;;;43.70;22.88;;;6.40;99.80;;;;;;5034028;28;20030;-69
2020/12/02 01:32:49;;;;;;;48.85;23.42;;;6.40;99.90;;;;;;5033924;28;20022;-69
2020/12/02 01:35:22;;;;;;;46.72;23.67;;;6.30;99.80;;;;;;5035370;28;20119;-70
2020/12/02 01:37:54;;;;;;;44.80;22.80;;;6.30;99.90;;;;;;5033769;28;20033;-69
2020/12/02 01:40:26;;;;;;;46.97;24.05;;;6.30;99.90;;;;;;5033749;28;20132;-69
2020/12/02 01:43:01;;;;;;;43.72;23.70;;;6.40;99.90;;;;;;5032548;28;20026;-68
2020/12/02 01:45:45;;;;;;;44.88;23.50;;;6.40;99.90;;;;;;5033707;28;20033;-69
2020/12/02 01:48:51;;;;;;;45.03;25.05;;;6.30;99.80;;;;;;5033444;28;20033;-69
2020/12/02 01:51:34;;;;;;;45.35;23.15;;;6.20;99.80;;;;;;5032462;28;20033;-69
2020/12/02 01:54:37;;;;;;;45.08;23.17;;;6.20;99.90;;;;;;5032399;28;20125;-69
2020/12/02 01:57:23;;;;;;;44.03;23.08;;;6.20;99.90;;;;;;5033272;28;20116;-68
2020/12/02 02:00:15;;;;;;;45.22;23.27;;;6.20;99.90;;;;;;5033255;28;20029;-69
2020/12/02 02:03:16;;;;;;;47.72;23.83;;;6.30;99.90;;;;;;5033578;28;20040;-69
2020/12/02 02:05:53;;;;;;;43.28;22.83;;;6.20;99.90;;;;;;5033567;28;20045;-70
2020/12/02 02:08:28;;;;;;;45.88;22.73;;;6.30;99.90;;;;;;5034791;28;20079;-69
2020/12/02 02:10:55;;;;;;;45.42;23.40;;;6.20;99.90;;;;;;5033031;28;20038;-69
2020/12/02 02:13:28;;;;;;;41.90;21.52;;;6.30;99.90;;;;;;5033037;28;20111;-68
2020/12/02 02:16:16;;;;;;;42.08;23.10;;;6.30;99.90;;;;;;5033009;28;20030;-68
2020/12/02 02:18:42;;;;;;;45.47;21.67;;;6.30;99.90;;;;;;5020767;28;20045;-69
2020/12/02 02:21:14;;;;;;;43.78;23.33;;;6.30;99.90;;;;;;5032650;28;20040;-69
2020/12/02 02:23:40;;;;;;;45.83;23.25;;;6.40;99.80;;;;;;5033072;28;20124;-69
2020/12/02 02:26:25;;;;;;;46.38;23.27;;;6.40;99.90;;;;;;5034444;28;20149;-69
2020/12/02 02:29:18;;;;;;;49.42;23.20;;;6.40;99.80;;;;;;5032771;28;20356;-69
2020/12/02 02:32:11;;;;;;;51.78;22.48;;;6.20;99.90;;;;;;5032421;28;20077;-69
2020/12/02 02:34:39;;;;;;;47.83;23.60;;;6.30;99.80;;;;;;5032432;28;20107;-69
2020/12/02 02:37:09;;;;;;;45.72;22.80;;;6.30;99.90;;;;;;5032700;28;20343;-69
2020/12/02 02:39:35;;;;;;;46.75;22.77;;;6.40;99.80;;;;;;5032773;28;20034;-69
2020/12/02 02:42:06;;;;;;;44.17;23.33;;;6.40;99.80;;;;;;5032687;28;20121;-69
2020/12/02 02:44:32;;;;;;;43.35;22.92;;;6.40;99.70;;;;;;5034037;28;20482;-69
2020/12/02 02:46:58;;;;;;;48.72;24.02;;;6.30;99.90;;;;;;5032785;28;20509;-69
2020/12/02 02:49:25;;;;;;;47.55;23.88;;;6.30;99.60;;;;;;5032380;28;20041;-68
2020/12/02 02:51:51;;;;;;;43.13;22.38;;;6.30;99.70;;;;;;5032378;28;20431;-69
2020/12/02 02:54:17;;;;;;;46.47;21.83;;;6.30;99.80;;;;;;5032422;28;20474;-69
2020/12/02 02:56:43;;;;;;;45.80;22.17;;;6.30;99.70;;;;;;5032148;28;20025;-68
2020/12/02 02:59:10;;;;;;;46.42;23.67;;;6.30;99.70;;;;;;5033859;28;20022;-69
2020/12/02 03:01:41;;;;;;;43.78;23.23;;;6.20;99.80;;;;;;5032404;28;20106;-69
2020/12/02 03:04:08;;;;;;;45.42;22.85;;;6.30;99.80;;;;;;5031771;28;20121;-69
2020/12/02 03:06:34;;;;;;;46.75;22.55;;;6.20;99.70;;;;;;5032243;28;20136;-70
2020/12/02 03:08:59;;;;;;;44.22;22.55;;;6.20;99.80;;;;;;5032014;28;20407;-70
2020/12/02 03:11:25;;;;;;;46.45;24.55;;;6.30;99.70;;;;;;5033471;28;20061;-69
2020/12/02 03:13:52;;;;;;;46.25;22.67;;;6.30;99.70;;;;;;5031899;28;20037;-70
2020/12/02 03:16:24;;;;;;;45.73;22.00;;;6.20;99.60;;;;;;5030803;28;20061;-68
2020/12/02 03:18:51;;;;;;;48.90;22.48;;;6.20;99.70;;;;;;5031989;28;20041;-69
2020/12/02 03:21:20;;;;;;;46.53;23.00;;;6.20;99.60;;;;;;5030914;28;20108;-68
2020/12/02 03:23:46;;;;;;;43.58;22.00;;;6.10;99.60;;;;;;5031901;28;20025;-69
2020/12/02 03:26:12;;;;;;;44.85;22.95;;;6.10;99.60;;;;;;5033739;28;20119;-68
2020/12/02 03:28:38;;;;;;;42.20;22.15;;;6.10;99.60;;;;;;5031747;28;20041;-68
2020/12/02 03:31:09;;;;;;;39.35;20.85;;;6.10;99.60;;;;;;5030695;28;20419;-69
2020/12/02 03:33:34;;;;;;;45.05;23.13;;;6.00;99.60;;;;;;5032094;28;20471;-69
2020/12/02 03:36:00;;;;;;;43.20;21.90;;;6.00;99.60;;;;;;5031833;28;20049;-69
2020/12/02 03:38:26;;;;;;;42.58;23.15;;;6.10;99.60;;;;;;5033102;28;20105;-68
2020/12/02 03:40:51;;;;;;;47.88;23.02;;;6.10;99.50;;;;;;5031654;28;20112;-69
2020/12/02 03:43:17;;;;;;;45.75;23.42;;;6.10;99.60;;;;;;5031070;28;20056;-71
2020/12/02 03:45:44;;;;;;;43.10;22.63;;;6.00;99.60;;;;;;5031364;28;20045;-70
2020/12/02 03:48:12;;;;;;;47.40;23.08;;;5.90;99.60;;;;;;5031273;28;20482;-69
2020/12/02 03:50:39;;;;;;;45.05;22.88;;;6.00;99.70;;;;;;5031475;28;20022;-68
2020/12/02 03:53:06;;;;;;;45.38;22.85;;;6.00;99.70;;;;;;5031911;28;20049;-68
2020/12/02 03:55:33;;;;;;;48.90;24.23;;;6.00;99.70;;;;;;5031604;28;20034;-69
2020/12/02 03:57:59;;;;;;;44.22;23.77;;;5.90;99.70;;;;;;5031444;28;20470;-69
2020/12/02 04:00:25;;;;;;;48.38;23.30;;;6.00;99.80;;;;;;5031576;28;20038;-69
2020/12/02 04:02:51;;;;;;;40.95;21.45;;;6.00;99.70;;;;;;5031279;28;20025;-68
2020/12/02 04:05:17;;;;;;;44.00;22.92;;;6.00;99.70;;;;;;5032960;28;20029;-70
2020/12/02 04:07:43;;;;;;;48.50;23.70;;;6.10;99.70;;;;;;5031605;28;20517;-68
2020/12/02 04:10:08;;;;;;;45.10;23.38;;;6.10;99.50;;;;;;5031618;28;20045;-69
2020/12/02 04:12:34;;;;;;;49.50;23.67;;;6.00;99.60;;;;;;5031344;28;20060;-70
2020/12/02 04:15:00;;;;;;;44.35;23.00;;;6.00;99.60;;;;;;5031406;28;20056;-68
2020/12/02 04:17:26;;;;;;;46.63;22.85;;;6.00;99.60;;;;;;5033164;28;20021;-68
2020/12/02 04:19:52;;;;;;;47.85;23.13;;;6.00;99.50;;;;;;5031481;28;20606;-68
2020/12/02 04:22:17;;;;;;;46.35;22.45;;;6.00;99.60;;;;;;5030822;28;20026;-70
2020/12/02 04:24:43;;;;;;;46.83;23.33;;;6.00;99.50;;;;;;5031260;28;20043;-69
2020/12/02 04:27:09;;;;;;;46.78;23.48;;;5.90;99.60;;;;;;5031184;28;20076;-69
2020/12/02 04:29:35;;;;;;;51.92;23.75;;;5.90;99.70;;;;;;5030058;28;20033;-67
2020/12/02 04:32:01;;;;;;;46.25;21.75;;;5.90;99.70;;;;;;5032737;28;20037;-68
2020/12/02 04:34:26;;;;;;;42.42;22.23;;;6.00;99.70;;;;;;5031297;28;20375;-68
2020/12/02 04:36:52;;;;;;;44.33;22.38;;;5.90;99.60;;;;;;5030826;28;20034;-70
2020/12/02 04:39:18;;;;;;;48.35;24.02;;;6.00;99.60;;;;;;5030006;28;20422;-69
2020/12/02 04:41:45;;;;;;;43.05;23.13;;;6.00;99.60;;;;;;5030975;28;20033;-68
2020/12/02 04:44:12;;;;;;;49.15;22.33;;;6.00;99.60;;;;;;5032618;28;20065;-69
2020/12/02 04:46:39;;;;;;;51.20;25.40;;;5.90;99.70;;;;;;5031032;28;20045;-69
2020/12/02 04:49:21;;;;;;;46.92;22.75;;;6.00;99.70;;;;;;5031126;28;20455;-70
2020/12/02 04:51:50;;;;;;;47.00;23.02;;;6.10;99.60;;;;;;5030538;28;20056;-70
2020/12/02 04:54:17;;;;;;;41.22;21.88;;;6.00;99.40;;;;;;5032788;28;20115;-68
2020/12/02 04:56:46;;;;;;;46.45;23.35;;;6.00;99.50;;;;;;5034581;28;20049;-68
2020/12/02 04:59:13;;;;;;;41.95;21.63;;;6.00;99.60;;;;;;5036044;28;20052;-68
2020/12/02 05:01:55;;;;;;;49.80;23.02;;;6.00;99.50;;;;;;5034593;28;20094;-69
2020/12/02 05:04:23;;;;;;;44.17;22.85;;;6.00;99.60;;;;;;5034454;28;20490;-69
2020/12/02 05:07:04;;;;;;;48.20;23.83;;;6.00;99.60;;;;;;5034616;28;20117;-69
2020/12/02 05:09:33;;;;;;;43.72;21.77;;;6.10;99.50;;;;;;5034071;28;20514;-69
2020/12/02 05:12:22;;;;;;;47.13;23.58;;;6.20;99.50;;;;;;5034138;28;20030;-69
2020/12/02 05:14:48;;;;;;;46.85;23.58;;;6.30;99.40;;;;;;5033973;28;20025;-70
2020/12/02 05:17:27;;;;;;;45.67;22.17;;;6.20;99.20;;;;;;5035823;28;20047;-69
2020/12/02 05:20:22;;;;;;;48.60;23.75;;;6.20;99.20;;;;;;5034290;28;20092;-69
2020/12/02 05:22:52;;;;;;;42.50;22.67;;;6.10;99.30;;;;;;5034152;28;20034;-69
2020/12/02 05:25:32;;;;;;;46.17;23.15;;;6.10;99.40;;;;;;5034005;28;20036;-69
2020/12/02 05:28:33;;;;;;;44.35;22.50;;;6.10;99.20;;;;;;5033794;28;20107;-69
2020/12/02 05:31:12;;;;;;;46.47;23.60;;;6.20;99.30;;;;;;5033735;28;20037;-69
2020/12/02 05:33:39;;;;;;;47.40;23.17;;;6.20;99.30;;;;;;5033743;28;20088;-69
2020/12/02 05:36:13;;;;;;;43.05;22.02;;;6.30;99.20;;;;;;5033713;28;20033;-68
2020/12/02 05:38:46;;;;;;;49.55;22.95;;;6.30;99.10;;;;;;5033734;28;20029;-69
2020/12/02 05:41:14;;;;;;;50.85;23.55;;;6.30;99.10;;;;;;5035189;28;20126;-70
2020/12/02 05:43:52;;;;;;;49.15;23.20;;;6.30;99.30;;;;;;5033708;28;20041;-69
2020/12/02 05:46:46;;;;;;;46.92;22.55;;;6.20;99.10;;;;;;5033399;28;20034;-69
2020/12/02 05:49:37;;;;;;;42.25;22.15;;;6.30;99.00;;;;;;5033600;28;20044;-68
2020/12/02 05:52:03;;;;;;;41.08;21.65;;;6.20;99.00;;;;;;5032159;28;20049;-69
2020/12/02 05:54:32;;;;;;;46.90;23.20;;;6.10;99.10;;;;;;5033696;28;20032;-68
2020/12/02 05:57:01;;;;;;;49.00;23.48;;;6.10;99.10;;;;;;5033584;28;20045;-69
2020/12/02 05:59:27;;;;;;;46.20;23.20;;;6.00;99.20;;;;;;5034944;28;20026;-69
2020/12/02 06:01:57;;;;;;;49.20;23.08;;;6.10;99.20;;;;;;5033139;28;20321;-69
2020/12/02 06:04:24;;;;;;;44.83;23.58;;;6.20;99.20;;;;;;5033167;28;20481;-69
2020/12/02 06:06:57;;;;;;;50.00;23.08;;;6.20;99.20;;;;;;5032773;28;20056;-70
2020/12/02 06:09:47;;;;;;;45.45;22.80;;;6.30;99.10;;;;;;5033237;28;20055;-70
2020/12/02 06:12:38;;;;;;;47.67;23.33;;;6.20;99.10;;;;;;5033202;28;20360;-68
2020/12/02 06:15:16;;;;;;;46.28;22.38;;;6.20;99.10;;;;;;5032915;28;20047;-71
2020/12/02 06:17:41;;;;;;;45.25;22.95;;;6.20;99.10;;;;;;5032920;28;20091;-68
2020/12/02 06:20:07;;;;;;;48.22;22.75;;;6.20;99.20;;;;;;5034435;28;20025;-70
2020/12/02 06:22:47;;;;;;;47.17;23.33;;;6.10;99.10;;;;;;5032580;28;20022;-70
2020/12/02 06:25:40;;;;;;;49.88;24.48;;;6.10;99.20;;;;;;5033107;28;20080;-69
2020/12/02 06:28:09;;;;;;;43.95;21.30;;;6.10;99.20;;;;;;5033169;28;20033;-69
2020/12/02 06:30:35;;;;;;;44.17;22.25;;;6.10;99.30;;;;;;5031634;28;20126;-69
2020/12/02 06:33:11;;;;;;;52.15;24.30;;;6.10;99.20;;;;;;5032602;28;20435;-69
2020/12/02 06:35:37;;;;;;;45.47;22.85;;;6.20;99.10;;;;;;5031178;28;20025;-68
2020/12/02 06:38:24;;;;;;;44.72;22.38;;;6.10;99.10;;;;;;5033865;28;20099;-70
2020/12/02 06:41:22;;;;;;;46.28;23.48;;;6.10;99.10;;;;;;5032659;28;20370;-70
2020/12/02 06:43:56;;;;;;;45.97;23.02;;;6.20;99.10;;;;;;5025310;28;20037;-68
2020/12/02 06:46:54;;;;;;;47.10;22.90;;;6.30;99.00;;;;;;5032424;28;20041;-69
2020/12/02 06:49:22;;;;;;;43.95;22.60;;;6.30;99.00;;;;;;5031895;28;20056;-68
2020/12/02 06:51:59;;;;;;;45.03;21.88;;;6.20;99.20;;;;;;5032237;28;20058;-68
2020/12/02 06:54:29;;;;;;;45.58;22.73;;;6.20;99.00;;;;;;5032211;28;20045;-68
2020/12/02 06:57:04;;;;;;;46.90;22.77;;;6.30;99.10;;;;;;5032213;28;20379;-69
2020/12/02 06:59:29;;;;;;;48.33;21.75;;;6.40;99.00;;;;;;5033715;28;20443;-69
2020/12/02 07:02:03;;;;;;;44.85;23.33;;;6.40;98.90;;;;;;5032341;28;20037;-69
2020/12/02 07:04:35;;;;;;;46.40;23.05;;;6.40;98.90;;;;;;5032172;28;20136;-69
2020/12/02 07:07:01;;;;;;;50.22;22.92;;;6.40;99.00;;;;;;5030782;28;20037;-69
2020/12/02 07:09:26;;;;;;;47.00;23.30;;;6.30;98.90;;;;;;5030833;28;20088;-68
2020/12/02 07:11:58;;;;;;;47.35;24.48;;;6.30;99.00;;;;;;5032104;28;21611;-69
2020/12/02 07:14:38;;;;;;;45.90;22.67;;;6.20;99.00;;;;;;5033401;28;20196;-68
2020/12/02 07:17:11;;;;;;;42.83;22.85;;;6.30;99.00;;;;;;5031467;28;20045;-71
2020/12/02 07:19:40;;;;;;;45.08;22.88;;;6.20;99.00;;;;;;5032021;28;20041;-74
2020/12/02 07:22:13;;;;;;;55.63;24.08;;;6.30;99.10;;;;;;5031637;28;20555;-70
2020/12/02 07:24:45;;;;;;;53.38;24.75;;;6.30;99.00;;;;;;5030923;28;20038;-73
2020/12/02 07:27:12;;;;;;;45.50;22.13;;;6.30;99.10;;;;;;5031837;28;20029;-73
2020/12/02 07:29:38;;;;;;;44.03;22.73;;;6.30;99.00;;;;;;5031978;28;20335;-69
2020/12/02 07:32:12;;;;;;;47.72;22.75;;;6.30;98.90;;;;;;5033210;28;20105;-69
2020/12/02 07:34:38;;;;;;;50.13;22.63;;;6.30;99.10;;;;;;5031808;28;20087;-75
2020/12/02 07:37:15;;;;;;;44.67;22.75;;;6.40;98.90;;;;;;5031359;28;20053;-71
2020/12/02 07:39:44;;;;;;;;;;;6.30;98.90;;;;;;5032204;28;20068;-71
2020/12/02 07:42:22;;;;;;;52.05;23.58;;;6.40;98.90;;;;;;5031460;28;19999;-72
2020/12/02 07:45:16;;;;;;;46.08;23.08;;;6.40;98.90;;;;;;5031238;28;20049;-73
2020/12/02 07:48:08;;;;;;;49.22;22.50;;;6.30;98.80;;;;;;5031240;28;20026;-72
2020/12/02 07:50:35;;;;;;;43.50;23.58;;;6.30;98.80;;;;;;5030635;28;20022;-69
2020/12/02 07:53:31;;;;;;;47.40;23.20;;;6.20;98.90;;;;;;5032966;28;20049;-71
2020/12/02 07:55:59;;;;;;;46.33;23.50;;;6.30;99.00;;;;;;5031332;28;20041;-71
2020/12/02 07:58:29;;;;;;;47.42;23.15;;;6.30;99.00;;;;;;5031273;28;20037;-70
2020/12/02 08:00:57;;;;;;;52.42;24.35;;;6.20;98.90;;;;;;5031400;28;20046;-72
2020/12/02 08:03:27;;;;;;;;;;;6.10;99.00;;;;;;5031967;28;20064;-71
2020/12/02 08:06:04;;;;;;;46.47;23.45;;;6.10;99.10;;;;;;5031271;28;19917;-72
2020/12/02 08:08:29;;;;;;;50.30;24.67;;;6.20;99.20;;;;;;5032705;28;20104;-72
2020/12/02 08:11:05;;;;;;;48.50;24.63;;;6.30;99.10;;;;;;5031096;28;20430;-72
2020/12/02 08:13:34;;;;;;;54.65;24.77;;;6.20;99.00;;;;;;5031066;28;20108;-71
2020/12/02 08:16:02;;;;;;;51.85;23.20;;;6.40;99.10;;;;;;5030053;28;20038;-72
2020/12/02 08:18:31;;;;;;;51.75;24.65;;;6.30;99.00;;;;;;5031230;28;20033;-71
2020/12/02 08:21:12;;;;;;;51.90;24.27;;;6.30;99.10;;;;;;5030010;28;20098;-71
2020/12/02 08:23:41;;;;;;;55.17;25.90;;;6.40;99.10;;;;;;5031572;28;20026;-72
2020/12/02 08:26:19;;;;;;;54.28;25.67;;;6.40;99.00;;;;;;5032856;28;20029;-73
2020/12/02 08:28:45;;;;;;;59.58;27.27;;;6.40;99.10;;;;;;5032318;28;20045;-71
2020/12/02 08:31:11;;;;;;;53.40;24.15;;;6.40;99.00;;;;;;5035061;28;20073;-70
2020/12/02 08:33:37;;;;;;;57.90;26.63;;;6.20;98.90;;;;;;5033659;28;20072;-73
2020/12/02 08:36:06;;;;;;;49.10;25.35;;;6.30;99.00;;;;;;5034569;28;20453;-70
2020/12/02 08:38:37;;;;;;;51.75;24.42;;;6.30;98.90;;;;;;5036330;28;20029;-71
2020/12/02 08:41:03;;;;;;;50.03;24.65;;;6.40;98.90;;;;;;5035141;28;20371;-70
2020/12/02 08:43:48;;;;;;;51.15;24.65;;;6.50;98.90;;;;;;5034811;28;20459;-73
2020/12/02 08:46:14;;;;;;;59.72;28.67;;;6.50;98.80;;;;;;5034914;28;20037;-71
2020/12/02 08:48:41;;;;;;;49.83;24.60;;;6.50;98.60;;;;;;5034638;28;20033;-71
2020/12/02 08:51:11;;;;;;;54.70;26.25;;;6.40;98.70;;;;;;5034486;28;20041;-70
2020/12/02 08:53:36;;;;;;;53.38;25.15;;;6.40;98.70;;;;;;5034585;28;20042;-69
2020/12/02 08:56:03;;;;;;;50.75;23.98;;;6.40;98.70;;;;;;5035930;28;20037;-70
2020/12/02 08:58:29;;;;;;;56.50;25.95;;;6.40;98.70;;;;;;5034624;28;20025;-69
2020/12/02 09:00:54;;;;;;;52.15;25.75;;;6.40;98.50;;;;;;5034288;28;20621;-70
2020/12/02 09:03:23;;;;;;;50.97;25.27;;;6.50;98.70;;;;;;5034300;28;20041;-70
2020/12/02 09:05:49;;;;;;;53.22;26.42;;;6.40;98.60;;;;;;5034477;28;20083;-72
2020/12/02 09:08:15;;;;;;;54.75;26.15;;;6.40;98.70;;;;;;5035797;28;20406;-70
2020/12/02 09:10:41;;;;;;;68.20;32.17;;;6.50;98.70;;;;;;5034668;28;20063;-70
2020/12/02 09:13:07;;;;;;;68.60;31.23;;;6.60;98.70;;;;;;5034372;28;20041;-70
2020/12/02 09:15:32;;;;;;;58.78;27.65;;;6.60;98.60;;;;;;5033299;28;20543;-71
2020/12/02 09:17:58;;;;;;;56.42;26.50;;;6.60;98.50;;;;;;5033809;28;20104;-70
2020/12/02 09:20:26;;;;;;;54.92;25.63;;;6.50;98.50;;;;;;5035252;28;20511;-72
2020/12/02 09:22:52;;;;;;;63.38;28.23;;;6.50;98.60;;;;;;5034134;28;20037;-78
2020/12/02 09:25:20;;;;;;;59.45;27.63;;;6.60;98.40;;;;;;5033624;28;20026;-74
2020/12/02 09:27:46;;;;;;;60.35;27.25;;;6.60;98.30;;;;;;5031145;28;20040;-72
2020/12/02 09:30:14;;;;;;;55.50;26.05;;;6.70;98.30;;;;;;5033927;28;20026;-72
2020/12/02 09:32:41;;;;;;;60.15;27.60;;;6.70;98.20;;;;;;5026928;28;20522;-73
2020/12/02 09:35:07;;;;;;;62.05;28.30;;;6.60;97.90;;;;;;5035634;28;20105;-72
2020/12/02 09:37:36;;;;;;;60.03;28.15;;;6.60;97.90;;;;;;5034555;28;20061;-74
2020/12/02 09:40:12;;;;;;;54.20;26.42;;;6.60;97.90;;;;;;5031893;28;20111;-71
2020/12/02 09:42:57;;;;;;;55.90;26.23;;;6.60;98.10;;;;;;5033792;28;20534;-73
2020/12/02 09:45:35;;;;;;;56.58;25.70;;;6.70;97.90;;;;;;5033556;28;20040;-72
2020/12/02 09:48:10;;;;;;;56.92;27.02;;;6.70;97.90;;;;;;5033385;28;20026;-72
2020/12/02 09:50:35;;;;;;;59.30;28.30;;;6.70;97.70;;;;;;5032346;28;20048;-71
2020/12/02 09:53:14;;;;;;;57.72;26.10;;;6.60;97.70;;;;;;5034754;28;20049;-71
2020/12/02 09:55:40;;;;;;;57.85;27.42;;;6.60;97.80;;;;;;5033402;28;20049;-71
2020/12/02 09:58:07;;;;;;;64.72;27.65;;;6.70;98.00;;;;;;5033449;28;20120;-71
2020/12/02 10:00:32;;;;;;;59.13;27.25;;;6.80;97.90;;;;;;5033198;28;20033;-71
2020/12/02 10:03:33;;;;;;;59.38;27.98;;;6.80;97.70;;;;;;5032205;28;20045;-70
2020/12/02 10:06:11;;;;;;;49.15;24.55;;;6.70;97.70;;;;;;5007693;28;20095;-70
2020/12/02 10:09:05;;;;;;;56.20;25.08;;;6.70;97.90;;;;;;5033149;28;20025;-69
2020/12/02 10:11:53;;;;;;;54.85;26.55;;;6.70;97.90;;;;;;5034498;28;20025;-71
2020/12/02 10:14:47;;;;;;;60.15;24.83;;;6.70;97.90;;;;;;5033119;28;20040;-70
2020/12/02 10:17:49;;;;;;;50.38;25.77;;;6.80;97.90;;;;;;5033289;28;20324;-71
2020/12/02 10:20:34;;;;;;;50.15;24.50;;;6.80;97.70;;;;;;5033267;28;20129;-70
2020/12/02 10:23:20;;;;;;;53.97;26.73;;;6.70;97.80;;;;;;5032806;28;20368;-72
2020/12/02 10:26:13;;;;;;;52.40;25.08;;;6.70;97.70;;;;;;5032886;28;20041;-72
2020/12/02 10:29:30;;;;;;;50.30;24.58;;;6.70;97.80;;;;;;5032595;28;20033;-69
2020/12/02 10:32:17;;;;;;;47.45;23.52;;;6.60;97.60;;;;;;4952472;28;20043;-71
2020/12/02 10:34:43;;;;;;;53.92;25.67;;;6.80;97.80;;;;;;5032809;28;20030;-70
2020/12/02 10:37:15;;;;;;;50.22;25.13;;;6.80;97.50;;;;;;5032494;28;20045;-72
2020/12/02 10:39:41;;;;;;;51.65;25.92;;;6.80;97.50;;;;;;5032606;28;20095;-70
2020/12/02 10:42:44;;;;;;;51.65;24.77;;;6.90;97.70;;;;;;5032304;28;20096;-70
2020/12/02 10:45:13;;;;;;;51.58;25.30;;;6.90;97.60;;;;;;5032613;28;20064;-70
2020/12/02 10:48:13;;;;;;;49.47;23.17;;;6.90;97.50;;;;;;5032619;28;20033;-69
2020/12/02 10:50:40;;;;;;;52.05;24.88;;;7.00;97.60;;;;;;5032514;28;20025;-70
2020/12/02 10:53:13;;;;;;;48.88;24.25;;;7.00;97.40;;;;;;5033686;28;20060;-73
2020/12/02 10:55:39;;;;;;;44.63;23.05;;;7.10;97.30;;;;;;5032230;28;20522;-72
2020/12/02 10:58:20;;;;;;;55.78;24.60;;;7.10;97.20;;;;;;5031156;28;20073;-70
2020/12/02 11:00:53;;;;;;;52.22;24.48;;;7.20;97.30;;;;;;5031976;28;20090;-71
2020/12/02 11:03:25;;;;;;;54.00;24.95;;;6.90;97.10;;;;;;5032524;28;20438;-69
2020/12/02 11:06:08;;;;;;;48.17;23.35;;;6.90;97.10;;;;;;5032338;28;20064;-70
2020/12/02 11:09:05;;;;;;;48.08;23.52;;;6.80;97.10;;;;;;5032043;28;20100;-69
2020/12/02 11:12:00;;;;;;;52.57;24.23;;;6.90;97.30;;;;;;5033598;28;20075;-71
2020/12/02 11:14:59;;;;;;;52.47;23.83;;;7.00;97.10;;;;;;4961787;28;20293;-71
2020/12/02 11:17:37;;;;;;;46.10;23.90;;;7.00;97.20;;;;;;5031979;28;20412;-71
2020/12/02 11:20:41;;;;;;;62.40;25.13;;;7.10;97.00;;;;;;5032054;28;20033;-71
2020/12/02 11:23:07;;;;;;;49.88;22.67;;;6.90;96.90;;;;;;5032179;28;20044;-70
2020/12/02 11:25:48;;;;;;;44.15;22.48;;;7.00;97.00;;;;;;5031695;28;20037;-70
2020/12/02 11:28:15;;;;;;;45.75;22.60;;;7.00;96.70;;;;;;5031820;28;20037;-72
2020/12/02 11:30:43;;;;;;;48.67;23.53;;;6.90;96.90;;;;;;5031800;28;20042;-70
2020/12/02 11:33:23;;;;;;;53.55;22.75;;;7.00;96.70;;;;;;5031674;28;20037;-73
2020/12/02 11:36:26;;;;;;;47.22;23.58;;;7.00;96.50;;;;;;5031558;28;20026;-69
2020/12/02 11:39:11;;;;;;;51.72;23.48;;;6.80;96.50;;;;;;5031403;28;20095;-69
2020/12/02 11:41:55;;;;;;;49.70;23.20;;;6.70;96.60;;;;;;5031286;28;20028;-69
2020/12/02 11:44:46;;;;;;;49.30;23.98;;;6.70;96.70;;;;;;5032950;28;20056;-70
2020/12/02 11:47:19;;;;;;;45.58;21.65;;;6.80;96.70;;;;;;5031725;28;20042;-72
2020/12/02 11:49:53;;;;;;;54.50;22.58;;;6.90;96.60;;;;;;5031172;28;20120;-70
2020/12/02 11:52:30;;;;;;;46.65;23.48;;;7.00;96.70;;;;;;5030107;28;20049;-70
2020/12/02 11:54:56;;;;;;;47.13;23.08;;;7.10;96.70;;;;;;5031262;28;20362;-71
2020/12/02 11:57:23;;;;;;;46.72;23.45;;;7.10;96.70;;;;;;5030882;28;20068;-74
2020/12/02 11:59:48;;;;;;;44.97;22.75;;;7.10;96.60;;;;;;5031478;28;20022;-73
2020/12/02 12:02:50;;;;;;;47.42;23.50;;;7.10;96.50;;;;;;5031934;28;20030;-70
2020/12/02 12:05:23;;;;;;;47.55;23.15;;;7.10;96.50;;;;;;5031091;28;20033;-70
2020/12/02 12:08:13;;;;;;;46.60;23.20;;;7.10;96.60;;;;;;5035608;28;20433;-72
2020/12/02 12:10:49;;;;;;;47.35;22.15;;;7.10;96.50;;;;;;5035405;28;20034;-70
2020/12/02 12:13:34;;;;;;;44.65;22.83;;;7.10;96.50;;;;;;5035265;28;20416;-69
2020/12/02 12:16:22;;;;;;;50.97;23.65;;;7.20;96.70;;;;;;5035023;28;20063;-70
2020/12/02 12:19:04;;;;;;;45.45;23.63;;;7.20;96.50;;;;;;5035251;28;20026;-70
2020/12/02 12:21:38;;;;;;;47.85;24.10;;;7.20;96.50;;;;;;5034975;28;20340;-73
2020/12/02 12:24:10;;;;;;;47.40;23.40;;;7.30;96.50;;;;;;5034996;28;20025;-71
2020/12/02 12:26:43;;;;;;;49.50;23.48;;;7.20;96.40;;;;;;5034715;28;20045;-72
2020/12/02 12:29:11;;;;;;;47.20;23.17;;;7.30;96.50;;;;;;5036817;28;20079;-72
2020/12/02 12:31:58;;;;;;;47.78;23.58;;;7.20;96.30;;;;;;5033727;28;20391;-72
2020/12/02 12:34:41;;;;;;;53.40;23.50;;;7.20;96.40;;;;;;5034198;28;20033;-71
2020/12/02 12:37:18;;;;;;;47.83;22.20;;;7.20;96.40;;;;;;5034396;28;20119;-71
2020/12/02 12:39:50;;;;;;;54.47;25.67;;;7.20;96.30;;;;;;5034905;28;20049;-72
2020/12/02 12:42:22;;;;;;;48.90;22.42;;;7.30;96.50;;;;;;5034781;28;20033;-72
2020/12/02 12:44:48;;;;;;;45.53;22.35;;;7.20;96.30;;;;;;5033710;28;20112;-71
2020/12/02 12:47:27;;;;;;;45.83;23.20;;;7.20;96.60;;;;;;5036385;28;20014;-72
2020/12/02 12:49:55;;;;;;;42.80;21.38;;;7.20;96.40;;;;;;5034743;28;20045;-72
2020/12/02 12:52:25;;;;;;;40.08;20.70;;;7.10;96.40;;;;;;5034355;28;20115;-71
2020/12/02 12:54:51;;;;;;;50.33;23.98;;;7.10;96.60;;;;;;5033263;28;20034;-70
2020/12/02 12:57:22;;;;;;;49.05;22.83;;;7.20;96.70;;;;;;5034129;28;20042;-71
2020/12/02 12:59:47;;;;;;;43.38;21.65;;;7.20;96.60;;;;;;5034532;28;20029;-72
2020/12/02 13:02:19;;;;;;;46.83;22.17;;;7.20;96.60;;;;;;5036085;28;20051;-72
2020/12/02 13:04:45;;;;;;;47.22;23.48;;;7.20;96.40;;;;;;5034360;28;20103;-71
2020/12/02 13:07:19;;;;;;;43.58;22.50;;;7.30;96.70;;;;;;5034171;28;20414;-72
2020/12/02 13:09:53;;;;;;;47.22;22.40;;;7.10;96.30;;;;;;5034363;28;20121;-72